Jonestown, Pennsylvania
Current Conditions -  °F | °C
As of 4:58 PM on Saturday 20 Dec 2014 (Local Time) from KMUI Reporting Station
Overcast Overcast  
Wind Chill: 33°   Ceiling: 3200
Heat Index: 33°   Visibility: 10mi
Dew Point: 21°   Wind: 0mph
Humidity: 62%   Direction: NA
Pressure: 30.26"   Gusts: NA
Location:  40.41°N, 76.48°W
Report Text: KMUI 202158Z AUTO 00000KT 10SM OVC032 00/M06 A3026 RMK AO2 SLP255 T00041061
Loading
Personal Weather Stations






























Interactive Weather Map New forecast layout! Learn more

10-Day Weather Forecast

Advertisements
Track Severe Weather on mobile